sensor_id;sensor_type;location;lat;lon;timestamp;P1;durP1;ratioP1;P2;durP2;ratioP2
11490;SDS011;5802;52.832;4.758;2023-06-10T00:00:42;2.88;;;2.55;;
11490;SDS011;5802;52.832;4.758;2023-06-10T00:03:09;3.53;;;2.75;;
11490;SDS011;5802;52.832;4.758;2023-06-10T00:05:36;2.67;;;2.38;;
11490;SDS011;5802;52.832;4.758;2023-06-10T00:08:05;2.33;;;2.13;;
11490;SDS011;5802;52.832;4.758;2023-06-10T00:10:33;3.65;;;2.35;;
11490;SDS011;5802;52.832;4.758;2023-06-10T00:13:00;2.80;;;2.47;;
11490;SDS011;5802;52.832;4.758;2023-06-10T00:15:27;5.05;;;2.85;;
11490;SDS011;5802;52.832;4.758;2023-06-10T00:17:55;2.95;;;2.58;;
11490;SDS011;5802;52.832;4.758;2023-06-10T00:20:22;4.47;;;2.38;;
11490;SDS011;5802;52.832;4.758;2023-06-10T00:22:50;4.82;;;3.15;;
11490;SDS011;5802;52.832;4.758;2023-06-10T00:25:17;3.13;;;2.40;;
11490;SDS011;5802;52.832;4.758;2023-06-10T00:27:44;3.97;;;2.70;;
11490;SDS011;5802;52.832;4.758;2023-06-10T00:30:11;4.45;;;2.78;;
11490;SDS011;5802;52.832;4.758;2023-06-10T00:32:39;3.75;;;2.67;;
11490;SDS011;5802;52.832;4.758;2023-06-10T00:35:07;4.38;;;2.67;;
11490;SDS011;5802;52.832;4.758;2023-06-10T00:37:34;3.45;;;2.60;;
11490;SDS011;5802;52.832;4.758;2023-06-10T00:40:01;3.42;;;2.33;;
11490;SDS011;5802;52.832;4.758;2023-06-10T00:42:28;3.42;;;2.30;;
11490;SDS011;5802;52.832;4.758;2023-06-10T00:44:55;3.10;;;2.20;;
11490;SDS011;5802;52.832;4.758;2023-06-10T00:47:21;3.00;;;2.50;;
11490;SDS011;5802;52.832;4.758;2023-06-10T00:49:49;3.63;;;2.70;;
11490;SDS011;5802;52.832;4.758;2023-06-10T00:52:18;3.72;;;2.55;;
11490;SDS011;5802;52.832;4.758;2023-06-10T00:54:45;2.60;;;2.30;;
11490;SDS011;5802;52.832;4.758;2023-06-10T00:57:12;4.07;;;2.40;;
11490;SDS011;5802;52.832;4.758;2023-06-10T00:59:39;3.13;;;2.50;;
11490;SDS011;5802;52.832;4.758;2023-06-10T01:02:06;3.13;;;2.40;;
11490;SDS011;5802;52.832;4.758;2023-06-10T01:04:34;2.45;;;2.20;;
11490;SDS011;5802;52.832;4.758;2023-06-10T01:07:04;3.35;;;2.28;;
11490;SDS011;5802;52.832;4.758;2023-06-10T01:09:40;3.63;;;2.53;;
11490;SDS011;5802;52.832;4.758;2023-06-10T01:12:16;3.70;;;2.30;;
11490;SDS011;5802;52.832;4.758;2023-06-10T01:14:49;3.28;;;2.70;;
11490;SDS011;5802;52.832;4.758;2023-06-10T01:17:17;2.97;;;2.53;;
11490;SDS011;5802;52.832;4.758;2023-06-10T01:19:44;3.10;;;2.35;;
11490;SDS011;5802;52.832;4.758;2023-06-10T01:22:12;3.10;;;1.83;;
11490;SDS011;5802;52.832;4.758;2023-06-10T01:24:40;3.60;;;2.53;;
11490;SDS011;5802;52.832;4.758;2023-06-10T01:27:10;2.50;;;2.30;;
11490;SDS011;5802;52.832;4.758;2023-06-10T01:29:41;2.75;;;2.30;;
11490;SDS011;5802;52.832;4.758;2023-06-10T01:32:15;2.92;;;2.30;;
11490;SDS011;5802;52.832;4.758;2023-06-10T01:34:44;2.65;;;2.25;;
11490;SDS011;5802;52.832;4.758;2023-06-10T01:37:13;2.92;;;2.22;;
11490;SDS011;5802;52.832;4.758;2023-06-10T01:39:43;3.40;;;2.40;;
11490;SDS011;5802;52.832;4.758;2023-06-10T01:42:12;2.97;;;2.38;;
11490;SDS011;5802;52.832;4.758;2023-06-10T01:44:39;3.38;;;2.20;;
11490;SDS011;5802;52.832;4.758;2023-06-10T01:47:07;4.78;;;2.40;;
11490;SDS011;5802;52.832;4.758;2023-06-10T01:49:33;3.20;;;2.28;;
11490;SDS011;5802;52.832;4.758;2023-06-10T01:52:00;2.70;;;2.42;;
11490;SDS011;5802;52.832;4.758;2023-06-10T01:54:28;3.03;;;2.00;;
11490;SDS011;5802;52.832;4.758;2023-06-10T01:56:55;2.40;;;2.10;;
11490;SDS011;5802;52.832;4.758;2023-06-10T01:59:22;3.35;;;2.45;;
11490;SDS011;5802;52.832;4.758;2023-06-10T02:01:49;2.97;;;2.22;;
11490;SDS011;5802;52.832;4.758;2023-06-10T02:04:15;3.42;;;2.17;;
11490;SDS011;5802;52.832;4.758;2023-06-10T02:06:42;6.07;;;2.65;;
11490;SDS011;5802;52.832;4.758;2023-06-10T02:09:10;4.55;;;2.63;;
11490;SDS011;5802;52.832;4.758;2023-06-10T02:11:38;6.75;;;2.40;;
11490;SDS011;5802;52.832;4.758;2023-06-10T02:14:04;3.55;;;2.22;;
11490;SDS011;5802;52.832;4.758;2023-06-10T02:16:31;2.40;;;2.00;;
11490;SDS011;5802;52.832;4.758;2023-06-10T02:18:58;3.05;;;2.45;;
11490;SDS011;5802;52.832;4.758;2023-06-10T02:21:25;3.17;;;2.45;;
11490;SDS011;5802;52.832;4.758;2023-06-10T02:23:52;2.80;;;2.38;;
11490;SDS011;5802;52.832;4.758;2023-06-10T02:26:18;2.83;;;2.05;;
11490;SDS011;5802;52.832;4.758;2023-06-10T02:28:47;3.15;;;2.50;;
11490;SDS011;5802;52.832;4.758;2023-06-10T02:31:14;2.50;;;2.30;;
11490;SDS011;5802;52.832;4.758;2023-06-10T02:33:43;3.22;;;2.25;;
11490;SDS011;5802;52.832;4.758;2023-06-10T02:36:09;2.92;;;2.35;;
11490;SDS011;5802;52.832;4.758;2023-06-10T02:38:38;4.10;;;2.00;;
11490;SDS011;5802;52.832;4.758;2023-06-10T02:41:05;2.47;;;2.17;;
11490;SDS011;5802;52.832;4.758;2023-06-10T02:43:31;2.55;;;1.92;;
11490;SDS011;5802;52.832;4.758;2023-06-10T02:45:59;2.90;;;2.08;;
11490;SDS011;5802;52.832;4.758;2023-06-10T02:48:26;3.72;;;2.22;;
11490;SDS011;5802;52.832;4.758;2023-06-10T02:50:54;2.83;;;2.15;;
11490;SDS011;5802;52.832;4.758;2023-06-10T02:53:21;3.15;;;2.50;;
11490;SDS011;5802;52.832;4.758;2023-06-10T02:55:47;3.25;;;2.25;;
11490;SDS011;5802;52.832;4.758;2023-06-10T02:58:14;4.10;;;2.38;;
11490;SDS011;5802;52.832;4.758;2023-06-10T03:00:41;3.80;;;2.50;;
11490;SDS011;5802;52.832;4.758;2023-06-10T03:03:09;3.00;;;2.22;;
11490;SDS011;5802;52.832;4.758;2023-06-10T03:05:36;3.28;;;2.58;;
11490;SDS011;5802;52.832;4.758;2023-06-10T03:08:03;2.47;;;2.17;;
11490;SDS011;5802;52.832;4.758;2023-06-10T03:10:30;3.08;;;2.20;;
11490;SDS011;5802;52.832;4.758;2023-06-10T03:12:57;2.70;;;2.40;;
11490;SDS011;5802;52.832;4.758;2023-06-10T03:15:24;3.00;;;2.20;;
11490;SDS011;5802;52.832;4.758;2023-06-10T03:17:51;2.83;;;2.25;;
11490;SDS011;5802;52.832;4.758;2023-06-10T03:20:19;3.42;;;2.55;;
11490;SDS011;5802;52.832;4.758;2023-06-10T03:22:46;2.40;;;2.20;;
11490;SDS011;5802;52.832;4.758;2023-06-10T03:25:13;3.58;;;2.42;;
11490;SDS011;5802;52.832;4.758;2023-06-10T03:27:39;2.67;;;2.33;;
11490;SDS011;5802;52.832;4.758;2023-06-10T03:30:07;3.03;;;2.50;;
11490;SDS011;5802;52.832;4.758;2023-06-10T03:32:35;2.50;;;2.03;;
11490;SDS011;5802;52.832;4.758;2023-06-10T03:35:02;3.88;;;2.50;;
11490;SDS011;5802;52.832;4.758;2023-06-10T03:37:31;4.35;;;2.90;;
11490;SDS011;5802;52.832;4.758;2023-06-10T03:39:57;2.92;;;2.20;;
11490;SDS011;5802;52.832;4.758;2023-06-10T03:42:24;3.72;;;2.50;;
11490;SDS011;5802;52.832;4.758;2023-06-10T03:44:51;2.58;;;2.30;;
11490;SDS011;5802;52.832;4.758;2023-06-10T03:47:17;2.90;;;2.33;;
11490;SDS011;5802;52.832;4.758;2023-06-10T03:49:44;3.50;;;2.38;;
11490;SDS011;5802;52.832;4.758;2023-06-10T03:52:11;2.95;;;2.17;;
11490;SDS011;5802;52.832;4.758;2023-06-10T03:54:39;3.08;;;2.35;;
11490;SDS011;5802;52.832;4.758;2023-06-10T03:57:05;2.72;;;2.42;;
11490;SDS011;5802;52.832;4.758;2023-06-10T03:59:32;3.60;;;2.50;;
11490;SDS011;5802;52.832;4.758;2023-06-10T04:01:59;2.60;;;2.38;;
11490;SDS011;5802;52.832;4.758;2023-06-10T04:04:26;3.88;;;2.40;;
11490;SDS011;5802;52.832;4.758;2023-06-10T04:06:53;2.88;;;2.40;;
11490;SDS011;5802;52.832;4.758;2023-06-10T04:09:20;2.97;;;2.20;;
11490;SDS011;5802;52.832;4.758;2023-06-10T04:11:48;3.50;;;2.40;;
11490;SDS011;5802;52.832;4.758;2023-06-10T04:14:14;2.72;;;2.33;;
11490;SDS011;5802;52.832;4.758;2023-06-10T04:16:41;2.85;;;2.45;;
11490;SDS011;5802;52.832;4.758;2023-06-10T04:19:08;3.22;;;2.65;;
11490;SDS011;5802;52.832;4.758;2023-06-10T04:21:35;2.90;;;2.50;;
11490;SDS011;5802;52.832;4.758;2023-06-10T04:24:02;2.78;;;2.42;;
11490;SDS011;5802;52.832;4.758;2023-06-10T04:26:29;3.92;;;2.67;;
11490;SDS011;5802;52.832;4.758;2023-06-10T04:28:58;3.05;;;2.28;;
11490;SDS011;5802;52.832;4.758;2023-06-10T04:31:25;3.85;;;2.35;;
11490;SDS011;5802;52.832;4.758;2023-06-10T04:33:51;2.83;;;2.30;;
11490;SDS011;5802;52.832;4.758;2023-06-10T04:36:18;4.25;;;2.50;;
11490;SDS011;5802;52.832;4.758;2023-06-10T04:38:45;2.95;;;2.20;;
11490;SDS011;5802;52.832;4.758;2023-06-10T04:41:11;2.72;;;2.45;;
11490;SDS011;5802;52.832;4.758;2023-06-10T04:43:38;3.22;;;2.67;;
11490;SDS011;5802;52.832;4.758;2023-06-10T04:46:06;3.20;;;2.50;;
11490;SDS011;5802;52.832;4.758;2023-06-10T04:48:33;3.60;;;2.53;;
11490;SDS011;5802;52.832;4.758;2023-06-10T04:51:01;3.40;;;2.60;;
11490;SDS011;5802;52.832;4.758;2023-06-10T04:53:27;3.63;;;2.58;;
11490;SDS011;5802;52.832;4.758;2023-06-10T04:55:54;3.38;;;2.55;;
11490;SDS011;5802;52.832;4.758;2023-06-10T04:58:22;3.63;;;2.65;;
11490;SDS011;5802;52.832;4.758;2023-06-10T05:00:50;4.55;;;2.70;;
11490;SDS011;5802;52.832;4.758;2023-06-10T05:03:18;4.13;;;2.53;;
11490;SDS011;5802;52.832;4.758;2023-06-10T05:05:44;4.00;;;2.60;;
11490;SDS011;5802;52.832;4.758;2023-06-10T05:08:11;3.65;;;2.78;;
11490;SDS011;5802;52.832;4.758;2023-06-10T05:10:37;4.80;;;2.85;;
11490;SDS011;5802;52.832;4.758;2023-06-10T05:13:04;3.22;;;2.60;;
11490;SDS011;5802;52.832;4.758;2023-06-10T05:15:31;3.95;;;2.70;;
11490;SDS011;5802;52.832;4.758;2023-06-10T05:17:58;2.72;;;2.45;;
11490;SDS011;5802;52.832;4.758;2023-06-10T05:20:26;3.47;;;2.75;;
11490;SDS011;5802;52.832;4.758;2023-06-10T05:22:53;3.65;;;2.72;;
11490;SDS011;5802;52.832;4.758;2023-06-10T05:25:20;5.00;;;2.85;;
11490;SDS011;5802;52.832;4.758;2023-06-10T05:27:47;3.00;;;2.60;;
11490;SDS011;5802;52.832;4.758;2023-06-10T05:30:13;3.53;;;2.45;;
11490;SDS011;5802;52.832;4.758;2023-06-10T05:32:43;4.70;;;2.80;;
11490;SDS011;5802;52.832;4.758;2023-06-10T05:35:10;2.97;;;2.38;;
11490;SDS011;5802;52.832;4.758;2023-06-10T05:37:38;2.80;;;2.40;;
11490;SDS011;5802;52.832;4.758;2023-06-10T05:40:05;3.55;;;2.45;;
11490;SDS011;5802;52.832;4.758;2023-06-10T05:42:33;3.80;;;2.75;;
11490;SDS011;5802;52.832;4.758;2023-06-10T05:44:59;3.45;;;2.53;;
11490;SDS011;5802;52.832;4.758;2023-06-10T05:47:26;3.25;;;2.50;;
11490;SDS011;5802;52.832;4.758;2023-06-10T05:49:53;4.13;;;2.90;;
11490;SDS011;5802;52.832;4.758;2023-06-10T05:52:20;3.15;;;2.45;;
11490;SDS011;5802;52.832;4.758;2023-06-10T05:54:48;3.10;;;2.53;;
11490;SDS011;5802;52.832;4.758;2023-06-10T05:57:16;3.05;;;2.60;;
11490;SDS011;5802;52.832;4.758;2023-06-10T05:59:42;3.97;;;2.78;;
11490;SDS011;5802;52.832;4.758;2023-06-10T06:02:09;4.03;;;2.55;;
11490;SDS011;5802;52.832;4.758;2023-06-10T06:04:36;5.68;;;2.70;;
11490;SDS011;5802;52.832;4.758;2023-06-10T06:07:02;2.72;;;2.50;;
11490;SDS011;5802;52.832;4.758;2023-06-10T06:09:30;3.70;;;2.47;;
11490;SDS011;5802;52.832;4.758;2023-06-10T06:11:58;3.42;;;2.67;;
11490;SDS011;5802;52.832;4.758;2023-06-10T06:14:25;3.50;;;2.78;;
11490;SDS011;5802;52.832;4.758;2023-06-10T06:16:52;3.63;;;2.58;;
11490;SDS011;5802;52.832;4.758;2023-06-10T06:19:18;3.25;;;2.95;;
11490;SDS011;5802;52.832;4.758;2023-06-10T06:21:45;3.47;;;2.70;;
11490;SDS011;5802;52.832;4.758;2023-06-10T06:24:13;4.95;;;3.00;;
11490;SDS011;5802;52.832;4.758;2023-06-10T06:26:40;3.75;;;3.05;;
11490;SDS011;5802;52.832;4.758;2023-06-10T06:29:09;4.32;;;2.88;;
11490;SDS011;5802;52.832;4.758;2023-06-10T06:31:35;5.68;;;3.28;;
11490;SDS011;5802;52.832;4.758;2023-06-10T06:34:02;4.10;;;3.00;;
11490;SDS011;5802;52.832;4.758;2023-06-10T06:36:29;6.95;;;3.45;;
11490;SDS011;5802;52.832;4.758;2023-06-10T06:38:55;4.22;;;3.15;;
11490;SDS011;5802;52.832;4.758;2023-06-10T06:41:23;5.22;;;3.17;;
11490;SDS011;5802;52.832;4.758;2023-06-10T06:43:50;3.83;;;2.90;;
11490;SDS011;5802;52.832;4.758;2023-06-10T06:46:18;3.78;;;3.10;;
11490;SDS011;5802;52.832;4.758;2023-06-10T06:48:46;7.95;;;3.20;;
11490;SDS011;5802;52.832;4.758;2023-06-10T06:51:13;4.32;;;2.95;;
11490;SDS011;5802;52.832;4.758;2023-06-10T06:53:39;4.22;;;3.15;;
11490;SDS011;5802;52.832;4.758;2023-06-10T06:56:09;5.22;;;3.70;;
11490;SDS011;5802;52.832;4.758;2023-06-10T06:58:36;5.50;;;3.10;;
11490;SDS011;5802;52.832;4.758;2023-06-10T07:01:02;4.32;;;3.38;;
11490;SDS011;5802;52.832;4.758;2023-06-10T07:03:30;4.45;;;3.08;;
11490;SDS011;5802;52.832;4.758;2023-06-10T07:05:57;4.15;;;2.72;;
11490;SDS011;5802;52.832;4.758;2023-06-10T07:08:24;5.95;;;3.40;;
11490;SDS011;5802;52.832;4.758;2023-06-10T07:10:51;4.28;;;3.03;;
11490;SDS011;5802;52.832;4.758;2023-06-10T07:13:18;3.60;;;2.95;;
11490;SDS011;5802;52.832;4.758;2023-06-10T07:15:45;6.35;;;2.80;;
11490;SDS011;5802;52.832;4.758;2023-06-10T07:18:11;4.55;;;3.15;;
11490;SDS011;5802;52.832;4.758;2023-06-10T07:20:39;4.47;;;3.17;;
11490;SDS011;5802;52.832;4.758;2023-06-10T07:23:06;4.13;;;2.92;;
11490;SDS011;5802;52.832;4.758;2023-06-10T07:25:33;4.28;;;3.05;;
11490;SDS011;5802;52.832;4.758;2023-06-10T07:27:59;3.60;;;3.00;;
11490;SDS011;5802;52.832;4.758;2023-06-10T07:30:27;4.30;;;3.20;;
11490;SDS011;5802;52.832;4.758;2023-06-10T07:32:54;5.40;;;3.00;;
11490;SDS011;5802;52.832;4.758;2023-06-10T07:35:21;3.55;;;3.05;;
11490;SDS011;5802;52.832;4.758;2023-06-10T07:37:50;5.60;;;3.42;;
11490;SDS011;5802;52.832;4.758;2023-06-10T07:40:16;4.15;;;3.20;;
11490;SDS011;5802;52.832;4.758;2023-06-10T07:42:43;5.25;;;2.97;;
11490;SDS011;5802;52.832;4.758;2023-06-10T07:45:10;6.15;;;3.00;;
11490;SDS011;5802;52.832;4.758;2023-06-10T07:47:37;4.22;;;2.75;;
11490;SDS011;5802;52.832;4.758;2023-06-10T07:50:03;4.57;;;3.08;;
11490;SDS011;5802;52.832;4.758;2023-06-10T07:52:30;5.53;;;2.88;;
11490;SDS011;5802;52.832;4.758;2023-06-10T07:54:58;3.67;;;2.80;;
11490;SDS011;5802;52.832;4.758;2023-06-10T07:57:25;3.92;;;2.80;;
11490;SDS011;5802;52.832;4.758;2023-06-10T07:59:52;6.00;;;2.92;;
11490;SDS011;5802;52.832;4.758;2023-06-10T08:02:20;3.13;;;2.83;;
11490;SDS011;5802;52.832;4.758;2023-06-10T08:04:46;3.45;;;2.70;;
11490;SDS011;5802;52.832;4.758;2023-06-10T08:07:13;5.63;;;2.90;;
11490;SDS011;5802;52.832;4.758;2023-06-10T08:09:40;5.38;;;3.05;;
11490;SDS011;5802;52.832;4.758;2023-06-10T08:12:08;3.47;;;2.80;;
11490;SDS011;5802;52.832;4.758;2023-06-10T08:14:35;5.95;;;3.00;;
11490;SDS011;5802;52.832;4.758;2023-06-10T08:17:02;4.82;;;2.90;;
11490;SDS011;5802;52.832;4.758;2023-06-10T08:19:30;4.25;;;3.05;;
11490;SDS011;5802;52.832;4.758;2023-06-10T08:21:57;4.35;;;3.03;;
11490;SDS011;5802;52.832;4.758;2023-06-10T08:24:24;3.30;;;2.75;;
11490;SDS011;5802;52.832;4.758;2023-06-10T08:26:50;3.40;;;2.72;;
11490;SDS011;5802;52.832;4.758;2023-06-10T08:29:18;4.45;;;3.08;;
11490;SDS011;5802;52.832;4.758;2023-06-10T08:31:45;5.18;;;2.90;;
11490;SDS011;5802;52.832;4.758;2023-06-10T08:34:12;3.47;;;2.65;;
11490;SDS011;5802;52.832;4.758;2023-06-10T08:36:38;5.18;;;3.10;;
11490;SDS011;5802;52.832;4.758;2023-06-10T08:39:05;4.55;;;2.67;;
11490;SDS011;5802;52.832;4.758;2023-06-10T08:41:34;3.60;;;3.13;;
11490;SDS011;5802;52.832;4.758;2023-06-10T08:44:03;2.63;;;2.38;;
11490;SDS011;5802;52.832;4.758;2023-06-10T08:46:37;3.08;;;2.78;;
11490;SDS011;5802;52.832;4.758;2023-06-10T08:49:08;3.55;;;2.75;;
11490;SDS011;5802;52.832;4.758;2023-06-10T08:51:36;4.85;;;2.70;;
11490;SDS011;5802;52.832;4.758;2023-06-10T08:54:04;3.00;;;2.30;;
11490;SDS011;5802;52.832;4.758;2023-06-10T08:56:38;4.40;;;2.63;;
11490;SDS011;5802;52.832;4.758;2023-06-10T08:59:06;4.82;;;2.95;;
11490;SDS011;5802;52.832;4.758;2023-06-10T09:01:34;4.55;;;3.03;;
11490;SDS011;5802;52.832;4.758;2023-06-10T09:04:03;3.05;;;2.65;;
11490;SDS011;5802;52.832;4.758;2023-06-10T09:06:30;3.03;;;2.72;;
11490;SDS011;5802;52.832;4.758;2023-06-10T09:08:58;3.88;;;2.97;;
11490;SDS011;5802;52.832;4.758;2023-06-10T09:11:26;5.15;;;3.25;;
11490;SDS011;5802;52.832;4.758;2023-06-10T09:13:52;3.80;;;2.65;;
11490;SDS011;5802;52.832;4.758;2023-06-10T09:16:19;3.92;;;2.88;;
11490;SDS011;5802;52.832;4.758;2023-06-10T09:18:46;3.15;;;2.55;;
11490;SDS011;5802;52.832;4.758;2023-06-10T09:21:14;4.13;;;2.80;;
11490;SDS011;5802;52.832;4.758;2023-06-10T09:23:40;4.55;;;2.90;;
11490;SDS011;5802;52.832;4.758;2023-06-10T09:26:08;4.45;;;2.85;;
11490;SDS011;5802;52.832;4.758;2023-06-10T09:28:36;3.78;;;2.80;;
11490;SDS011;5802;52.832;4.758;2023-06-10T09:31:04;3.55;;;2.63;;
11490;SDS011;5802;52.832;4.758;2023-06-10T09:33:32;5.35;;;3.00;;
11490;SDS011;5802;52.832;4.758;2023-06-10T09:36:00;3.50;;;2.80;;
11490;SDS011;5802;52.832;4.758;2023-06-10T09:38:32;3.80;;;2.88;;
11490;SDS011;5802;52.832;4.758;2023-06-10T09:41:00;3.58;;;2.63;;
11490;SDS011;5802;52.832;4.758;2023-06-10T09:43:38;3.72;;;2.80;;
11490;SDS011;5802;52.832;4.758;2023-06-10T09:46:06;3.08;;;2.78;;
11490;SDS011;5802;52.832;4.758;2023-06-10T09:48:34;3.88;;;2.80;;
11490;SDS011;5802;52.832;4.758;2023-06-10T09:51:02;4.20;;;3.03;;
11490;SDS011;5802;52.832;4.758;2023-06-10T09:53:36;3.17;;;2.80;;
11490;SDS011;5802;52.832;4.758;2023-06-10T09:56:03;4.93;;;3.05;;
11490;SDS011;5802;52.832;4.758;2023-06-10T09:58:34;4.25;;;2.88;;
11490;SDS011;5802;52.832;4.758;2023-06-10T10:01:04;3.53;;;2.90;;
11490;SDS011;5802;52.832;4.758;2023-06-10T10:03:31;3.65;;;2.70;;
11490;SDS011;5802;52.832;4.758;2023-06-10T10:05:58;4.78;;;3.20;;
11490;SDS011;5802;52.832;4.758;2023-06-10T10:08:25;4.25;;;2.90;;
11490;SDS011;5802;52.832;4.758;2023-06-10T10:10:53;4.32;;;2.92;;
11490;SDS011;5802;52.832;4.758;2023-06-10T10:13:22;7.65;;;3.10;;
11490;SDS011;5802;52.832;4.758;2023-06-10T10:15:50;7.20;;;2.80;;
11490;SDS011;5802;52.832;4.758;2023-06-10T10:18:17;6.50;;;2.90;;
11490;SDS011;5802;52.832;4.758;2023-06-10T10:20:53;4.97;;;2.88;;
11490;SDS011;5802;52.832;4.758;2023-06-10T10:23:21;4.85;;;2.78;;
11490;SDS011;5802;52.832;4.758;2023-06-10T10:25:54;4.35;;;2.90;;
11490;SDS011;5802;52.832;4.758;2023-06-10T10:28:21;3.78;;;3.00;;
11490;SDS011;5802;52.832;4.758;2023-06-10T10:30:53;7.15;;;3.13;;
11490;SDS011;5802;52.832;4.758;2023-06-10T10:33:24;3.47;;;2.80;;
11490;SDS011;5802;52.832;4.758;2023-06-10T10:35:57;5.68;;;2.85;;
11490;SDS011;5802;52.832;4.758;2023-06-10T10:38:24;5.25;;;3.40;;
11490;SDS011;5802;52.832;4.758;2023-06-10T10:40:51;4.45;;;3.05;;
11490;SDS011;5802;52.832;4.758;2023-06-10T10:43:24;4.13;;;3.10;;
11490;SDS011;5802;52.832;4.758;2023-06-10T10:45:57;7.47;;;3.17;;
11490;SDS011;5802;52.832;4.758;2023-06-10T10:48:25;3.80;;;2.75;;
11490;SDS011;5802;52.832;4.758;2023-06-10T10:50:56;5.70;;;3.88;;
11490;SDS011;5802;52.832;4.758;2023-06-10T10:53:23;5.38;;;3.10;;
11490;SDS011;5802;52.832;4.758;2023-06-10T10:55:58;6.38;;;3.10;;
11490;SDS011;5802;52.832;4.758;2023-06-10T10:58:26;4.80;;;2.85;;
11490;SDS011;5802;52.832;4.758;2023-06-10T11:00:52;5.03;;;3.22;;
11490;SDS011;5802;52.832;4.758;2023-06-10T11:03:19;4.15;;;2.95;;
11490;SDS011;5802;52.832;4.758;2023-06-10T11:05:46;5.78;;;3.50;;
11490;SDS011;5802;52.832;4.758;2023-06-10T11:08:14;5.97;;;3.28;;
11490;SDS011;5802;52.832;4.758;2023-06-10T11:10:50;4.85;;;2.95;;
11490;SDS011;5802;52.832;4.758;2023-06-10T11:13:20;5.05;;;3.30;;
11490;SDS011;5802;52.832;4.758;2023-06-10T11:15:48;4.32;;;2.90;;
11490;SDS011;5802;52.832;4.758;2023-06-10T11:18:20;4.55;;;2.88;;
11490;SDS011;5802;52.832;4.758;2023-06-10T11:20:55;4.82;;;3.10;;
11490;SDS011;5802;52.832;4.758;2023-06-10T11:23:40;3.63;;;3.17;;
11490;SDS011;5802;52.832;4.758;2023-06-10T11:26:09;4.50;;;3.25;;
11490;SDS011;5802;52.832;4.758;2023-06-10T11:28:38;5.63;;;3.13;;
11490;SDS011;5802;52.832;4.758;2023-06-10T11:31:05;4.97;;;3.60;;
11490;SDS011;5802;52.832;4.758;2023-06-10T11:33:33;7.60;;;3.35;;
11490;SDS011;5802;52.832;4.758;2023-06-10T11:36:06;5.47;;;3.50;;
11490;SDS011;5802;52.832;4.758;2023-06-10T11:38:33;7.40;;;3.38;;
11490;SDS011;5802;52.832;4.758;2023-06-10T11:41:01;4.70;;;3.45;;
11490;SDS011;5802;52.832;4.758;2023-06-10T11:43:28;7.47;;;5.65;;
11490;SDS011;5802;52.832;4.758;2023-06-10T11:45:57;6.90;;;4.57;;
11490;SDS011;5802;52.832;4.758;2023-06-10T11:48:25;9.30;;;4.70;;
11490;SDS011;5802;52.832;4.758;2023-06-10T11:50:53;7.38;;;4.32;;
11490;SDS011;5802;52.832;4.758;2023-06-10T11:53:20;6.00;;;4.05;;
11490;SDS011;5802;52.832;4.758;2023-06-10T11:55:47;7.20;;;4.35;;
11490;SDS011;5802;52.832;4.758;2023-06-10T11:58:18;10.13;;;4.53;;
11490;SDS011;5802;52.832;4.758;2023-06-10T12:00:46;7.40;;;4.20;;
11490;SDS011;5802;52.832;4.758;2023-06-10T12:03:14;8.13;;;4.43;;
11490;SDS011;5802;52.832;4.758;2023-06-10T12:05:53;6.97;;;3.90;;
11490;SDS011;5802;52.832;4.758;2023-06-10T12:08:24;5.97;;;3.80;;
11490;SDS011;5802;52.832;4.758;2023-06-10T12:10:52;6.35;;;4.50;;
11490;SDS011;5802;52.832;4.758;2023-06-10T12:13:20;7.60;;;4.22;;
11490;SDS011;5802;52.832;4.758;2023-06-10T12:15:48;8.43;;;4.20;;
11490;SDS011;5802;52.832;4.758;2023-06-10T12:18:19;7.63;;;4.15;;
11490;SDS011;5802;52.832;4.758;2023-06-10T12:20:47;7.18;;;3.80;;
11490;SDS011;5802;52.832;4.758;2023-06-10T12:23:15;7.10;;;3.75;;
11490;SDS011;5802;52.832;4.758;2023-06-10T12:25:49;4.93;;;3.35;;
11490;SDS011;5802;52.832;4.758;2023-06-10T12:28:17;6.97;;;3.67;;
11490;SDS011;5802;52.832;4.758;2023-06-10T12:30:46;7.18;;;3.55;;
11490;SDS011;5802;52.832;4.758;2023-06-10T12:33:16;5.75;;;3.22;;
11490;SDS011;5802;52.832;4.758;2023-06-10T12:35:48;5.75;;;3.80;;
11490;SDS011;5802;52.832;4.758;2023-06-10T12:38:20;5.40;;;3.45;;
11490;SDS011;5802;52.832;4.758;2023-06-10T12:40:49;6.30;;;3.63;;
11490;SDS011;5802;52.832;4.758;2023-06-10T12:43:19;4.15;;;3.30;;
11490;SDS011;5802;52.832;4.758;2023-06-10T12:45:46;3.67;;;3.33;;
11490;SDS011;5802;52.832;4.758;2023-06-10T12:48:17;6.05;;;3.58;;
11490;SDS011;5802;52.832;4.758;2023-06-10T12:50:46;6.05;;;3.47;;
11490;SDS011;5802;52.832;4.758;2023-06-10T12:53:16;4.90;;;3.00;;
11490;SDS011;5802;52.832;4.758;2023-06-10T12:55:44;6.93;;;3.35;;
11490;SDS011;5802;52.832;4.758;2023-06-10T12:58:11;4.45;;;3.25;;
11490;SDS011;5802;52.832;4.758;2023-06-10T13:00:38;5.13;;;3.40;;
11490;SDS011;5802;52.832;4.758;2023-06-10T13:03:07;3.80;;;3.30;;
11490;SDS011;5802;52.832;4.758;2023-06-10T13:05:34;6.40;;;3.47;;
11490;SDS011;5802;52.832;4.758;2023-06-10T13:08:04;7.82;;;3.42;;
11490;SDS011;5802;52.832;4.758;2023-06-10T13:10:31;8.32;;;3.60;;
11490;SDS011;5802;52.832;4.758;2023-06-10T13:12:58;7.43;;;3.40;;
11490;SDS011;5802;52.832;4.758;2023-06-10T13:15:25;6.00;;;3.00;;
11490;SDS011;5802;52.832;4.758;2023-06-10T13:17:52;5.15;;;3.25;;
11490;SDS011;5802;52.832;4.758;2023-06-10T13:20:19;7.30;;;3.40;;
11490;SDS011;5802;52.832;4.758;2023-06-10T13:22:46;6.95;;;3.55;;
11490;SDS011;5802;52.832;4.758;2023-06-10T13:25:14;6.53;;;3.17;;
11490;SDS011;5802;52.832;4.758;2023-06-10T13:27:41;5.45;;;3.22;;
11490;SDS011;5802;52.832;4.758;2023-06-10T13:30:08;6.90;;;3.35;;
11490;SDS011;5802;52.832;4.758;2023-06-10T13:32:36;4.82;;;3.30;;
11490;SDS011;5802;52.832;4.758;2023-06-10T13:35:03;5.50;;;3.65;;
11490;SDS011;5802;52.832;4.758;2023-06-10T13:37:30;6.38;;;3.30;;
11490;SDS011;5802;52.832;4.758;2023-06-10T13:39:59;7.35;;;3.75;;
11490;SDS011;5802;52.832;4.758;2023-06-10T13:42:27;6.85;;;3.33;;
11490;SDS011;5802;52.832;4.758;2023-06-10T13:44:54;5.55;;;3.22;;
11490;SDS011;5802;52.832;4.758;2023-06-10T13:47:21;5.90;;;3.35;;
11490;SDS011;5802;52.832;4.758;2023-06-10T13:49:48;5.40;;;3.20;;
11490;SDS011;5802;52.832;4.758;2023-06-10T13:52:15;7.25;;;3.70;;
11490;SDS011;5802;52.832;4.758;2023-06-10T13:54:42;8.05;;;3.83;;
11490;SDS011;5802;52.832;4.758;2023-06-10T13:57:09;5.88;;;3.80;;
11490;SDS011;5802;52.832;4.758;2023-06-10T13:59:37;5.20;;;3.42;;
11490;SDS011;5802;52.832;4.758;2023-06-10T14:02:04;6.05;;;3.40;;
11490;SDS011;5802;52.832;4.758;2023-06-10T14:04:31;6.15;;;3.42;;
11490;SDS011;5802;52.832;4.758;2023-06-10T14:06:58;6.75;;;3.22;;
11490;SDS011;5802;52.832;4.758;2023-06-10T14:09:25;6.90;;;3.65;;
11490;SDS011;5802;52.832;4.758;2023-06-10T14:11:51;8.95;;;3.38;;
11490;SDS011;5802;52.832;4.758;2023-06-10T14:14:19;5.55;;;3.47;;
11490;SDS011;5802;52.832;4.758;2023-06-10T14:16:48;7.65;;;3.50;;
11490;SDS011;5802;52.832;4.758;2023-06-10T14:19:15;6.63;;;3.42;;
11490;SDS011;5802;52.832;4.758;2023-06-10T14:21:42;5.50;;;3.22;;
11490;SDS011;5802;52.832;4.758;2023-06-10T14:24:08;10.40;;;3.55;;
11490;SDS011;5802;52.832;4.758;2023-06-10T14:26:35;6.35;;;3.58;;
11490;SDS011;5802;52.832;4.758;2023-06-10T14:29:01;8.77;;;3.58;;
11490;SDS011;5802;52.832;4.758;2023-06-10T14:31:28;5.63;;;3.50;;
11490;SDS011;5802;52.832;4.758;2023-06-10T14:33:56;6.85;;;3.22;;
11490;SDS011;5802;52.832;4.758;2023-06-10T14:36:23;6.97;;;3.35;;
11490;SDS011;5802;52.832;4.758;2023-06-10T14:38:50;7.57;;;3.70;;
11490;SDS011;5802;52.832;4.758;2023-06-10T14:41:16;10.85;;;3.70;;
11490;SDS011;5802;52.832;4.758;2023-06-10T14:43:43;14.27;;;4.38;;
11490;SDS011;5802;52.832;4.758;2023-06-10T14:46:10;11.27;;;3.80;;
11490;SDS011;5802;52.832;4.758;2023-06-10T14:48:37;7.13;;;3.85;;
11490;SDS011;5802;52.832;4.758;2023-06-10T14:51:05;8.68;;;3.97;;
11490;SDS011;5802;52.832;4.758;2023-06-10T14:53:31;6.68;;;4.03;;
11490;SDS011;5802;52.832;4.758;2023-06-10T14:55:58;11.25;;;3.95;;
11490;SDS011;5802;52.832;4.758;2023-06-10T14:58:25;8.55;;;3.47;;
11490;SDS011;5802;52.832;4.758;2023-06-10T15:00:51;9.32;;;3.72;;
11490;SDS011;5802;52.832;4.758;2023-06-10T15:03:18;8.85;;;4.20;;